Isle Of Wight, Virginia
Current Conditions -  °F | °C
As of 7:58 AM on Sunday 21 Dec 2014 (Local Time) from KFAF Reporting Station
Overcast Overcast  
Wind Chill: 36°   Ceiling: 7000
Heat Index: 36°   Visibility: 10mi
Dew Point: 26°   Wind: 1mph
Humidity: 65%   Direction: 30°NNE
Pressure: 30.31"   Gusts: NA
Location:  36.91°N, 76.71°W
Report Text: KFAF 211258Z AUTO 03001KT 10SM OVC070 02/M03 A3031 RMK AO2 SLP267 T00241035 $
Loading
Personal Weather Stations






























Interactive Weather Map New forecast layout! Learn more

10-Day Weather Forecast

Advertisements
Track Severe Weather on mobile